Young, Australia
Current Conditions -  °F | °C
As of 3:00 PM on Thursday 29 Jan 2015 (Local Time) from YSWG Reporting Station
Clear Clear  
Wind Chill: 77°   Ceiling: Unl
Heat Index: 77°   Visibility: 6mi
Dew Point: 34°   Wind: 10mph
Humidity: 21%   Direction: 220°SW
Pressure: 29.88"   Gusts: NA
Location:  34.31°S, 148.3°E
Report Text: YSWG 290400Z 22009KT CAVOK 25/01 Q1012
Loading
Personal Weather Stations






























Interactive Weather Map New forecast layout! Learn more

10-Day Weather Forecast

Advertisements
Track Severe Weather on mobile